Aviation Digital Data Service (ADDS)

Output produced by METARs form (2204 UTC 23 April 2014)
found at http://aviationweather.gov/adds/metars/
 
KINT 232113Z 2321/2418 32012G20KT P6SM SKC 
     FM232300 35005KT P6SM SKC